Latest Coastal Weather Observations for Sydney Airport

IDN60701

Issued at 4:41 am EST Saturday 27 August 2016 (issued every 10 minutes, with the page automatically refreshed every 10 minutes)

About coastal observations | Map of coastal stations | Coastal observations for NSW | Marine services | Other Formats
Station Details ID: 066037 Name: SYDNEY AIRPORT AMO Lat: -33.95 Lon: 151.17 Height: 6.0 m
Data from the previous 72 hours. | See also: Recent months at Sydney Airport
Date/Time
EST
Temp
°C
Wind Pressure Rain since
9am
mm
Weather Cloud Vis
km
Sea
Height
m
Swell
Dir  Spd
kts
Gust
kts
hPa Trend Height
m
Period
s
Dir
27/04:30am 8.2 NNW 6 7 1021.5 - 2.4 - - 10 - - - -
27/04:00am 8.5 WNW 8 9 1021.4 - 2.4 - - 10 - - - -
27/03:30am 8.8 W 10 12 1021.3 - 2.4 - - 10 - - - -
27/03:00am 9.0 W 9 11 1021.3 R 2.4 Fine Partly cloudy 30 - - - -
27/02:30am 10.2 W 12 14 1021.4 - 2.4 - Mostly clear 10 - - - -
27/02:00am 10.4 W 7 9 1021.3 - 2.4 - Mostly clear 10 - - - -
27/01:30am 10.7 W 8 10 1021.5 - 2.4 - Partly cloudy 10 - - - -
27/01:00am 11.3 SW 6 6 1021.6 - 2.4 - Mostly clear 10 - - - -
27/12:30am 11.5 SSW 6 10 1021.8 - 2.4 Showers Partly cloudy 10 - - - -
27/12:00am 11.3 W 4 6 1021.7 R 2.4 Showers Mostly cloudy 25 - - - -
 
Date/Time
EST
Temp
°C
Wind Pressure Rain since
9am
mm
Weather Cloud Vis
km
Sea
Height
m
Swell
Dir  Spd
kts
Gust
kts
hPa Trend Height
m
Period
s
Dir
26/11:30pm 11.2 N 4 5 1021.6 - 2.4 Showers Mostly clear 10 - - - -
26/11:00pm 11.6 NW 6 7 1021.4 - 2.4 - Mostly clear 10 - - - -
26/10:30pm 11.8 W 7 9 1021.3 - 2.4 Showers Mostly clear 10 - - - -
26/10:00pm 12.0 WSW 7 11 1021.0 - 2.4 - Mostly clear 10 - - - -
26/09:30pm 12.6 S 8 10 1021.1 - 2.2 Showers Mostly clear 10 - - - -
26/09:00pm 12.3 SSE 17 20 1020.7 R 2.0 Showers Mostly cloudy 25 - - - -
26/08:51pm 12.4 S 15 20 1020.8 - 2.0 Showers Mostly clear 10 - - - -
26/08:30pm 12.1 S 10 12 1020.8 - 2.0 Showers Partly cloudy 10 - - - -
26/08:00pm 12.0 SSE 18 22 1020.4 - 1.0 - Mostly clear 10 - - - -
26/07:30pm 12.8 SSE 20 27 1020.2 - 0.8 Showers Mostly clear 10 - - - -
26/07:21pm 13.4 S 15 22 1020.1 - 0.8 Showers Mostly clear 10 - - - -
26/07:00pm 13.4 S 9 11 1020.0 - 0.8 - Mostly clear 10 - - - -
26/06:30pm 12.3 S 18 26 1019.8 - 0.6 Showers Partly cloudy 10 - - - -
26/06:00pm 13.6 S 20 26 1019.0 R 0.0 Distant precip. Partly cloudy 25 - - - -
26/05:30pm 14.1 SSW 16 19 1018.7 - 0.0 - Partly cloudy 10 - - - -
26/05:00pm 14.2 SSW 17 20 1018.5 - 0.0 - Mostly clear 10 - - - -
26/04:30pm 14.5 S 17 27 1018.2 - 0.0 - Partly cloudy 10 - - - -
26/04:00pm 14.9 S 17 20 1018.1 - 0.0 - Mostly clear 10 - - - -
26/03:30pm 14.6 S 15 18 1017.7 - 0.0 - Mostly clear 10 - - - -
26/03:00pm 14.8 S 15 20 1017.5 R 0.0 Distant precip. Mostly cloudy 20 - - - -
26/02:30pm 15.2 S 15 21 1017.7 - 0.0 - Mostly clear 10 - - - -
26/02:00pm 15.0 S 16 21 1017.6 - 0.0 - Mostly clear 10 - - - -
26/01:37pm 15.1 S 15 25 1017.7 - 0.0 - Mostly clear 10 - - - -
26/01:30pm 15.2 S 16 19 1017.7 - 0.0 - Mostly clear 10 - - - -
26/01:00pm 15.1 S 16 19 1017.8 - 0.0 - Mostly clear 10 - - - -
26/12:30pm 14.8 SSW 16 20 1018.1 - 0.0 - Mostly clear 10 - - - -
26/12:00pm 13.8 SSW 16 20 1018.5 R 0.0 Distant precip. Partly cloudy 25 - - - -
26/11:30am 13.6 SSW 17 20 1018.6 - 0.0 - Partly cloudy 10 - - - -
26/11:00am 13.3 SW 15 21 1018.9 - 0.0 - Mostly clear 10 - - - -
26/10:30am 13.8 SSW 16 23 1018.8 - 0.0 - Partly cloudy 10 - - - -
26/10:00am 12.8 SW 16 19 1018.6 - 0.0 - Mostly clear 10 - - - -
26/09:30am 12.2 WSW 9 18 1018.8 - 0.0 - Mostly clear 10 - - - -
26/09:00am 10.9 WSW 11 14 1018.8 R 0.2 Distant precip. Mostly cloudy 25 - - - -
26/08:30am 10.3 W 10 13 1018.3 - 0.2 - Mostly clear 10 - - - -
26/08:00am 9.3 W 13 16 1018.2 - 0.2 - Mostly clear 10 - - - -
26/07:30am 8.9 W 13 17 1018.1 - 0.2 - Partly cloudy 10 - - - -
26/07:00am 7.9 W 12 15 1018.2 - 0.2 - Mostly clear 10 - - - -
26/06:30am 7.5 W 12 16 1017.8 - 0.2 - Partly cloudy 10 - - - -
26/06:00am 7.2 W 13 16 1017.1 R 0.2 Distant precip. Partly cloudy 15 - - - -
26/05:30am 7.5 W 11 14 1016.9 - 0.2 - Mostly clear 10 - - - -
26/05:00am 7.4 W 12 14 1016.6 - 0.2 - Mostly clear 10 - - - -
26/04:30am 7.5 WSW 12 14 1016.4 - 0.2 - Mostly clear 10 - - - -
26/04:00am 7.4 W 8 10 1016.0 - 0.2 - Mostly clear 10 - - - -
26/03:30am 7.7 WNW 8 10 1015.7 - 0.2 - Mostly clear 10 - - - -
26/03:00am 8.2 W 9 12 1015.8 R 0.2 Fine Mostly clear 30 - - - -
26/02:30am 8.7 WSW 11 15 1015.7 - 0.2 - Mostly clear 10 - - - -
26/02:00am 9.1 WSW 15 19 1015.8 - 0.2 - Partly cloudy 10 - - - -
26/01:30am 9.4 WSW 14 18 1015.8 - 0.2 - - 10 - - - -
26/01:00am 9.7 WSW 15 19 1015.9 - 0.2 - - 10 - - - -
26/12:30am 10.0 WSW 13 17 1015.8 - 0.2 - Partly cloudy 10 - - - -
26/12:00am 9.8 WSW 9 12 1015.7 R 0.2 Fine Mostly clear 30 - - - -
 
Date/Time
EST
Temp
°C
Wind Pressure Rain since
9am
mm
Weather Cloud Vis
km
Sea
Height
m
Swell
Dir  Spd
kts
Gust
kts
hPa Trend Height
m
Period
s
Dir
25/11:30pm 10.1 WSW 9 12 1015.5 - 0.2 - Partly cloudy 10 - - - -
25/11:00pm 10.3 W 7 9 1015.1 - 0.2 - Partly cloudy 10 - - - -
25/10:30pm 10.7 W 10 15 1014.7 - 0.2 - - 10 - - - -
25/10:00pm 11.3 WSW 13 16 1014.6 - 0.2 - - 10 - - - -
25/09:30pm 11.4 W 12 22 1014.3 - 0.2 - - 10 - - - -
25/09:00pm 12.2 W 15 18 1014.1 R 0.2 Fine Partly cloudy 30 - - - -
25/08:30pm 13.0 WNW 9 15 1014.0 - 0.2 - Partly cloudy 10 - - - -
25/08:00pm 13.4 NW 6 8 1013.7 - 0.2 - Partly cloudy 10 - - - -
25/07:30pm 13.8 WNW 4 7 1013.4 - 0.2 - Mostly clear 10 - - - -
25/07:00pm 14.0 WNW 4 6 1013.2 - 0.2 - Mostly clear 10 - - - -
25/06:30pm 13.4 SSW 5 7 1012.8 - 0.2 - Mostly clear 10 - - - -
25/06:00pm 13.9 SSW 6 7 1012.4 R 0.2 Fine Partly cloudy 30 - - - -
25/05:30pm 14.2 SSW 8 8 1011.9 - 0.2 - Mostly clear 10 - - - -
25/05:00pm 14.4 S 7 9 1011.6 - 0.2 - Mostly clear 10 - - - -
25/04:30pm 14.7 S 8 10 1011.2 - 0.2 - Partly cloudy 10 - - - -
25/04:00pm 15.3 SSE 10 12 1010.9 - 0.2 - Partly cloudy 10 - - - -
25/03:30pm 14.7 SSE 10 13 1010.7 - 0.2 - Partly cloudy 10 - - - -
25/03:00pm 15.0 S 12 15 1010.5 R 0.2 Fine Partly cloudy 30 - - - -
25/02:30pm 15.3 S 14 20 1010.3 - 0.2 - - 10 - - - -
25/02:00pm 15.0 S 13 16 1010.2 - 0.2 - Partly cloudy 10 - - - -
25/01:30pm 14.9 S 15 21 1010.0 - 0.2 - Partly cloudy 10 - - - -
25/01:00pm 15.6 WSW 10 18 1010.0 - 0.2 - Partly cloudy 10 - - - -
25/12:30pm 15.4 WSW 12 17 1010.2 - 0.2 - Mostly clear 10 - - - -
25/12:00pm 14.8 WSW 15 18 1010.4 R 0.0 Fine Mostly cloudy 30 - - - -
25/11:30am 15.3 WSW 15 22 1010.5 - 0.0 - Mostly clear 10 - - - -
25/11:00am 14.5 SW 15 21 1010.4 - 0.0 - Mostly clear 10 - - - -
25/10:30am 13.8 WSW 15 18 1010.5 - 0.0 - Mostly clear 10 - - - -
25/10:00am 11.9 W 13 18 1010.6 - 0.0 - Mostly clear 10 - - - -
25/09:30am 11.4 WSW 15 19 1010.6 - 0.0 - Mostly clear 10 - - - -
25/09:00am 11.3 WSW 16 18 1010.3 R 52.6 Distant precip. Mostly cloudy 25 - - - -
25/08:30am 11.0 WSW 15 19 1010.1 - 52.6 - Mostly clear 10 - - - -
25/08:00am 9.9 W 14 17 1010.1 - 52.6 - Mostly clear 10 - - - -
25/07:30am 9.7 W 13 17 1009.8 - 52.6 Showers Mostly clear 10 - - - -
25/07:00am 9.0 W 14 17 1009.3 - 52.6 - Mostly clear 10 - - - -
25/06:30am 9.3 W 13 16 1008.9 - 52.6 Showers Mostly clear 10 - - - -
25/06:00am 9.4 W 12 16 1008.6 R 52.6 Distant precip. Mostly cloudy 30 - - - -
25/05:30am 9.1 W 11 14 1008.3 - 52.6 - Mostly clear 10 - - - -
25/05:00am 9.4 WSW 12 16 1008.0 - 52.6 - Mostly clear 10 - - - -
25/04:30am 9.3 WSW 14 17 1007.7 - 52.6 - Partly cloudy 10 - - - -
25/04:00am 9.5 SW 15 18 1007.4 - 52.6 - Mostly clear 10 - - - -
25/03:30am 9.2 WSW 12 15 1007.4 - 52.6 - Mostly clear 10 - - - -
25/03:00am 9.3 WSW 12 15 1007.3 R 52.6 Drizzle Mostly cloudy 22 - - - -
25/02:30am 9.3 W 13 16 1007.3 - 52.4 Drizzle Mostly clear 10 - - - -
25/02:00am 9.6 WSW 14 20 1007.3 - 52.4 - Mostly clear 10 - - - -
25/01:30am 9.8 WSW 13 17 1007.4 - 52.4 Rain Mostly clear 10 - - - -
25/01:00am 10.1 WSW 11 15 1007.4 - 52.4 - Mostly clear 10 - - - -
25/12:30am 10.5 SW 18 20 1007.2 - 51.4 Rain Mostly clear 10 - - - -
25/12:00am 10.1 SW 15 18 1007.3 R 50.6 Rain Cloudy 10 - - - -
 
Date/Time
EST
Temp
°C
Wind Pressure Rain since
9am
mm
Weather Cloud Vis
km
Sea
Height
m
Swell
Dir  Spd
kts
Gust
kts
hPa Trend Height
m
Period
s
Dir
24/11:30pm 9.5 WSW 15 19 1007.4 - 49.6 Drizzle Mostly clear 10 - - - -
24/11:00pm 9.6 WSW 16 20 1007.4 - 48.6 - Mostly clear 9 - - - -
24/10:36pm 10.1 SW 15 25 1007.3 - 48.2 Rain Mostly clear 10 - - - -
24/10:30pm 10.3 SW 16 25 1007.2 - 48.2 Rain Mostly clear 9 - - - -
24/10:28pm 10.4 SW 16 25 1007.1 - 48.2 Rain Mostly clear 9 - - - -
24/10:00pm 10.9 WSW 11 14 1007.7 - 47.6 - Partly cloudy 9 - - - -
24/09:49pm 10.9 SSW 16 22 1007.5 - 47.4 Rain Mostly clear 9 - - - -
24/09:34pm 11.3 S 20 32 1007.4 - 46.8 Rain Mostly clear 9 - - - -
24/09:30pm 11.3 S 20 25 1007.4 - 46.8 Rain Mostly clear 9 - - - -
24/09:00pm 12.2 S 24 30 1007.2 F 46.0 Rain Cloudy 9 - - - -
24/08:52pm 12.3 S 24 30 1007.1 - 45.8 Rain Mostly clear 6 - - - -
24/08:30pm 12.0 S 25 31 1006.9 - 44.8 Rain Mostly clear 2 - - - -
24/08:00pm 12.3 S 23 33 1007.1 - 40.4 - Mostly clear 2 - - - -
24/07:58pm 12.5 SSW 22 32 1007.1 - 40.2 Rain Mostly clear 2 - - - -
24/07:52pm 12.7 S 24 32 1006.9 - 39.4 Rain Mostly clear 3 - - - -
24/07:30pm 12.8 SSE 23 30 1006.2 - 38.6 Rain Mostly clear 6 - - - -
24/07:23pm 12.6 SSE 23 29 1006.1 - 38.6 Rain Mostly clear 6 - - - -
24/07:00pm 12.3 SSE 21 28 1006.6 - 37.4 - Partly cloudy 4 - - - -
24/06:49pm 13.0 SSE 19 28 1006.7 - 36.4 Rain Partly cloudy 4 - - - -
24/06:30pm 12.9 SE 11 18 1007.1 - 35.0 Rain Partly cloudy 5 - - - -
24/06:08pm 13.1 SW 7 12 1007.2 - 30.4 Rain Partly cloudy 2 - - - -
24/06:00pm 13.7 ESE 9 17 1007.7 F 28.0 Rain Cloudy 8 - - - -
24/05:39pm 13.5 ESE 16 21 1005.2 - 27.6 Rain Partly cloudy 7 - - - -
24/05:30pm 13.4 ESE 17 24 1005.9 - 27.0 Rain Partly cloudy 4 - - - -
24/05:00pm 13.8 E 16 22 1006.4 - 26.2 - Mostly clear 10 - - - -
24/04:30pm 13.7 ESE 11 14 1006.6 - 26.2 Rain Partly cloudy 10 - - - -
24/04:17pm 13.6 ESE 10 13 1006.9 - 26.2 Rain Mostly clear 10 - - - -
24/04:00pm 13.5 ESE 7 9 1006.9 - 26.0 - Mostly clear 9 - - - -
24/03:30pm 13.2 SSE 5 7 1007.4 - 24.8 Showers Mostly clear 7 - - - -
24/03:14pm 13.3 SE 6 8 1007.6 - 24.0 Showers Mostly clear 4 - - - -
24/03:00pm 13.1 SSE 7 8 1007.8 F 22.6 Showers Cloudy 4 - - - -
24/02:35pm 13.1 ESE 14 19 1008.0 - 20.4 Showers Partly cloudy 3 - - - -
24/02:30pm 13.2 SE 15 19 1008.1 - 18.6 Showers Partly cloudy 2 - - - -
24/02:20pm 13.5 SE 14 17 1008.3 - 15.4 Showers Partly cloudy 4 - - - -
24/02:00pm 13.6 SE 14 18 1008.5 - 13.4 - Mostly clear 4 - - - -
24/01:30pm 13.4 SE 15 18 1008.5 - 12.4 Showers Mostly clear 5 - - - -
24/01:11pm 13.8 SE 17 20 1008.8 - 11.2 Showers Mostly clear 7 - - - -
24/01:00pm 13.6 SE 18 21 1008.9 - 10.6 - Mostly clear 4 - - - -
24/12:56pm 13.6 SE 17 21 1008.9 - 10.2 Showers Mostly clear 4 - - - -
24/12:30pm 14.2 SE 16 21 1009.3 - 9.4 Showers Mostly clear 6 - - - -
24/12:00pm 14.3 SE 15 19 1010.1 F 9.0 Showers Cloudy 15 - - - -
24/11:52am 14.2 SE 15 20 1010.3 - 9.0 Showers Mostly clear 10 - - - -
24/11:30am 13.9 ESE 14 18 1010.6 - 9.0 Showers Mostly clear 7 - - - -
24/11:11am 13.6 ESE 11 14 1011.3 - 8.6 Showers Partly cloudy 7 - - - -
24/11:00am 13.2 ESE 10 15 1011.7 - 8.4 - Partly cloudy 7 - - - -
24/10:49am 12.5 SSW 3 5 1012.5 - 8.0 Showers Mostly clear 7 - - - -
24/10:43am 12.4 SSW 6 19 1012.6 - 7.4 Showers Partly cloudy 5 - - - -
24/10:30am 12.9 S 11 16 1013.1 - 3.4 Showers Partly cloudy 2 - - - -
24/10:00am 13.1 SSE 10 16 1013.3 - 2.4 - Mostly clear 6 - - - -
24/09:30am 12.8 SSW 11 15 1013.1 - 0.8 Showers Mostly clear 6 - - - -
24/09:24am 12.7 SSW 11 15 1013.2 - 0.6 Showers Mostly clear 6 - - - -
24/09:00am 13.1 SSW 13 16 1013.2 F 3.8 Showers Cloudy 8 - - - -
24/08:30am 13.5 S 14 16 1013.7 - 3.8 - Partly cloudy 10 - - - -
24/08:00am 13.5 ESE 13 18 1013.6 - 3.8 - Mostly clear 10 - - - -
24/07:30am 13.3 ESE 16 20 1013.5 - 3.8 Showers Mostly clear 9 - - - -
24/07:00am 14.0 ESE 13 18 1013.4 - 3.8 - Mostly clear 9 - - - -
24/06:30am 14.4 SE 11 18 1013.7 - 3.8 Showers Mostly clear 8 - - - -
24/06:00am 13.0 SE 11 16 1013.2 F 3.4 Showers Mostly cloudy 12 - - - -
24/05:30am 13.8 S 16 21 1012.9 - 3.4 Showers Mostly clear 10 - - - -
24/05:00am 13.2 SE 10 15 1013.9 - 3.4 - Mostly clear 10 - - - -

Other Formats:

Comma delimited format used in spreadsheet applications
http://www.bom.gov.au/fwo/IDN60701/IDN60701.94767.axf

JavaScript Object Notation format (JSON) in row-major order
http://www.bom.gov.au/fwo/IDN60701/IDN60701.94767.json